sensor_id;sensor_type;location;lat;lon;timestamp;temperature;humidity
15178;DHT22;7689;53.612;-2.416;2022-10-04T00:03:21;12.30;99.90
15178;DHT22;7689;53.612;-2.416;2022-10-04T00:05:51;12.20;99.90
15178;DHT22;7689;53.612;-2.416;2022-10-04T00:08:23;12.30;99.90
15178;DHT22;7689;53.612;-2.416;2022-10-04T00:11:05;12.20;99.90
15178;DHT22;7689;53.612;-2.416;2022-10-04T00:13:33;12.20;99.90
15178;DHT22;7689;53.612;-2.416;2022-10-04T00:16:00;12.20;99.90
15178;DHT22;7689;53.612;-2.416;2022-10-04T00:18:30;12.20;99.90
15178;DHT22;7689;53.612;-2.416;2022-10-04T00:20:59;12.20;99.90
15178;DHT22;7689;53.612;-2.416;2022-10-04T00:23:26;12.20;99.90
15178;DHT22;7689;53.612;-2.416;2022-10-04T00:25:58;12.20;99.90
15178;DHT22;7689;53.612;-2.416;2022-10-04T00:28:27;12.20;99.90
15178;DHT22;7689;53.612;-2.416;2022-10-04T00:47:23;12.30;99.90
15178;DHT22;7689;53.612;-2.416;2022-10-04T00:49:54;12.40;99.90
15178;DHT22;7689;53.612;-2.416;2022-10-04T00:52:25;12.40;99.90
15178;DHT22;7689;53.612;-2.416;2022-10-04T00:55:00;12.40;99.90
15178;DHT22;7689;53.612;-2.416;2022-10-04T00:57:41;12.40;99.90
15178;DHT22;7689;53.612;-2.416;2022-10-04T01:00:13;12.50;99.90
15178;DHT22;7689;53.612;-2.416;2022-10-04T01:02:50;12.50;99.90
15178;DHT22;7689;53.612;-2.416;2022-10-04T01:05:22;12.50;99.90
15178;DHT22;7689;53.612;-2.416;2022-10-04T01:10:28;12.60;99.90
15178;DHT22;7689;53.612;-2.416;2022-10-04T01:13:20;12.60;99.90
15178;DHT22;7689;53.612;-2.416;2022-10-04T01:18:33;12.60;99.90
15178;DHT22;7689;53.612;-2.416;2022-10-04T01:21:27;12.70;99.90
15178;DHT22;7689;53.612;-2.416;2022-10-04T01:31:36;12.70;99.90
15178;DHT22;7689;53.612;-2.416;2022-10-04T01:34:04;12.80;99.90
15178;DHT22;7689;53.612;-2.416;2022-10-04T01:36:30;12.80;99.90
15178;DHT22;7689;53.612;-2.416;2022-10-04T01:38:56;12.80;99.90
15178;DHT22;7689;53.612;-2.416;2022-10-04T01:41:38;12.80;99.90
15178;DHT22;7689;53.612;-2.416;2022-10-04T01:44:12;12.80;99.90
15178;DHT22;7689;53.612;-2.416;2022-10-04T01:46:42;12.90;99.90
15178;DHT22;7689;53.612;-2.416;2022-10-04T01:49:11;12.80;99.90
15178;DHT22;7689;53.612;-2.416;2022-10-04T01:51:55;12.90;99.90
15178;DHT22;7689;53.612;-2.416;2022-10-04T01:54:41;12.80;99.90
15178;DHT22;7689;53.612;-2.416;2022-10-04T01:57:23;12.80;99.90
15178;DHT22;7689;53.612;-2.416;2022-10-04T02:00:07;12.80;99.90
15178;DHT22;7689;53.612;-2.416;2022-10-04T02:02:53;12.80;99.90
15178;DHT22;7689;53.612;-2.416;2022-10-04T02:05:51;12.80;99.90
15178;DHT22;7689;53.612;-2.416;2022-10-04T02:08:30;12.80;99.90
15178;DHT22;7689;53.612;-2.416;2022-10-04T02:10:57;12.80;99.90
15178;DHT22;7689;53.612;-2.416;2022-10-04T02:13:27;12.90;99.90
15178;DHT22;7689;53.612;-2.416;2022-10-04T02:15:57;12.90;99.90
15178;DHT22;7689;53.612;-2.416;2022-10-04T02:18:24;12.90;99.90
15178;DHT22;7689;53.612;-2.416;2022-10-04T02:20:51;12.90;99.90
15178;DHT22;7689;53.612;-2.416;2022-10-04T02:23:18;12.90;99.90
15178;DHT22;7689;53.612;-2.416;2022-10-04T02:25:45;12.90;99.90
15178;DHT22;7689;53.612;-2.416;2022-10-04T02:28:12;12.90;99.90
15178;DHT22;7689;53.612;-2.416;2022-10-04T02:30:41;12.90;99.90
15178;DHT22;7689;53.612;-2.416;2022-10-04T02:33:08;12.90;99.90
15178;DHT22;7689;53.612;-2.416;2022-10-04T02:35:37;12.90;99.90
15178;DHT22;7689;53.612;-2.416;2022-10-04T02:38:16;12.90;99.90
15178;DHT22;7689;53.612;-2.416;2022-10-04T02:40:55;13.00;99.90
15178;DHT22;7689;53.612;-2.416;2022-10-04T02:43:26;12.90;99.90
15178;DHT22;7689;53.612;-2.416;2022-10-04T02:46:11;12.90;99.90
15178;DHT22;7689;53.612;-2.416;2022-10-04T02:48:46;12.90;99.90
15178;DHT22;7689;53.612;-2.416;2022-10-04T02:51:22;12.90;99.90
15178;DHT22;7689;53.612;-2.416;2022-10-04T02:56:23;13.00;99.90
15178;DHT22;7689;53.612;-2.416;2022-10-04T02:58:50;13.00;99.90
15178;DHT22;7689;53.612;-2.416;2022-10-04T03:01:25;13.00;99.90
15178;DHT22;7689;53.612;-2.416;2022-10-04T03:03:52;13.00;99.90
15178;DHT22;7689;53.612;-2.416;2022-10-04T03:06:19;13.00;99.90
15178;DHT22;7689;53.612;-2.416;2022-10-04T03:11:15;13.10;99.90
15178;DHT22;7689;53.612;-2.416;2022-10-04T03:13:46;13.10;99.90
15178;DHT22;7689;53.612;-2.416;2022-10-04T03:16:13;13.10;99.90
15178;DHT22;7689;53.612;-2.416;2022-10-04T03:18:40;13.10;99.90
15178;DHT22;7689;53.612;-2.416;2022-10-04T03:21:08;13.10;99.90
15178;DHT22;7689;53.612;-2.416;2022-10-04T03:23:37;13.10;99.90
15178;DHT22;7689;53.612;-2.416;2022-10-04T03:26:18;13.20;99.90
15178;DHT22;7689;53.612;-2.416;2022-10-04T03:28:45;13.20;99.90
15178;DHT22;7689;53.612;-2.416;2022-10-04T03:31:12;13.30;99.90
15178;DHT22;7689;53.612;-2.416;2022-10-04T03:33:39;13.30;99.90
15178;DHT22;7689;53.612;-2.416;2022-10-04T03:36:06;13.30;99.90
15178;DHT22;7689;53.612;-2.416;2022-10-04T03:38:33;13.30;99.90
15178;DHT22;7689;53.612;-2.416;2022-10-04T03:41:01;13.30;99.90
15178;DHT22;7689;53.612;-2.416;2022-10-04T03:43:31;13.40;99.90
15178;DHT22;7689;53.612;-2.416;2022-10-04T03:46:00;13.40;99.90
15178;DHT22;7689;53.612;-2.416;2022-10-04T03:48:34;13.30;99.90
15178;DHT22;7689;53.612;-2.416;2022-10-04T03:51:01;13.30;99.90
15178;DHT22;7689;53.612;-2.416;2022-10-04T03:53:37;13.40;99.90
15178;DHT22;7689;53.612;-2.416;2022-10-04T03:56:13;13.40;99.90
15178;DHT22;7689;53.612;-2.416;2022-10-04T03:58:40;13.40;99.90
15178;DHT22;7689;53.612;-2.416;2022-10-04T04:04:40;13.40;99.90
15178;DHT22;7689;53.612;-2.416;2022-10-04T04:07:09;13.40;99.90
15178;DHT22;7689;53.612;-2.416;2022-10-04T04:09:43;13.40;99.90
15178;DHT22;7689;53.612;-2.416;2022-10-04T04:12:18;13.40;99.90
15178;DHT22;7689;53.612;-2.416;2022-10-04T04:14:47;13.40;99.90
15178;DHT22;7689;53.612;-2.416;2022-10-04T04:19:43;13.40;99.90
15178;DHT22;7689;53.612;-2.416;2022-10-04T04:22:18;13.40;99.90
15178;DHT22;7689;53.612;-2.416;2022-10-04T04:24:45;13.40;99.90
15178;DHT22;7689;53.612;-2.416;2022-10-04T04:27:13;13.40;99.90
15178;DHT22;7689;53.612;-2.416;2022-10-04T04:29:49;13.40;99.90
15178;DHT22;7689;53.612;-2.416;2022-10-04T04:32:20;13.40;99.90
15178;DHT22;7689;53.612;-2.416;2022-10-04T04:34:57;13.40;99.90
15178;DHT22;7689;53.612;-2.416;2022-10-04T04:37:22;13.40;99.90
15178;DHT22;7689;53.612;-2.416;2022-10-04T04:39:49;13.40;99.90
15178;DHT22;7689;53.612;-2.416;2022-10-04T04:44:52;13.40;99.90
15178;DHT22;7689;53.612;-2.416;2022-10-04T04:47:43;13.50;99.90
15178;DHT22;7689;53.612;-2.416;2022-10-04T04:50:33;13.40;99.90
15178;DHT22;7689;53.612;-2.416;2022-10-04T04:53:03;13.40;99.90
15178;DHT22;7689;53.612;-2.416;2022-10-04T04:55:32;13.50;99.90
15178;DHT22;7689;53.612;-2.416;2022-10-04T04:57:59;13.50;99.90
15178;DHT22;7689;53.612;-2.416;2022-10-04T05:00:30;13.50;99.90
15178;DHT22;7689;53.612;-2.416;2022-10-04T05:02:59;13.50;99.90
15178;DHT22;7689;53.612;-2.416;2022-10-04T05:05:31;13.50;99.90
15178;DHT22;7689;53.612;-2.416;2022-10-04T05:13:34;13.50;99.90
15178;DHT22;7689;53.612;-2.416;2022-10-04T05:21:53;13.60;99.90
15178;DHT22;7689;53.612;-2.416;2022-10-04T05:27:05;13.60;99.90
15178;DHT22;7689;53.612;-2.416;2022-10-04T05:29:37;13.60;99.90
15178;DHT22;7689;53.612;-2.416;2022-10-04T05:34:42;13.60;99.90
15178;DHT22;7689;53.612;-2.416;2022-10-04T05:37:52;13.60;99.90
15178;DHT22;7689;53.612;-2.416;2022-10-04T05:40:57;13.60;99.90
15178;DHT22;7689;53.612;-2.416;2022-10-04T05:43:44;13.60;99.90
15178;DHT22;7689;53.612;-2.416;2022-10-04T05:48:42;13.60;99.90
15178;DHT22;7689;53.612;-2.416;2022-10-04T05:53:45;13.60;99.90
15178;DHT22;7689;53.612;-2.416;2022-10-04T06:01:46;13.60;99.90
15178;DHT22;7689;53.612;-2.416;2022-10-04T06:06:55;13.70;99.90
15178;DHT22;7689;53.612;-2.416;2022-10-04T06:12:16;13.70;99.90
15178;DHT22;7689;53.612;-2.416;2022-10-04T06:14:56;13.70;99.90
15178;DHT22;7689;53.612;-2.416;2022-10-04T06:20:17;13.70;99.90
15178;DHT22;7689;53.612;-2.416;2022-10-04T06:22:47;13.70;99.90
15178;DHT22;7689;53.612;-2.416;2022-10-04T06:25:25;13.70;99.90
15178;DHT22;7689;53.612;-2.416;2022-10-04T06:36:22;13.70;99.90
15178;DHT22;7689;53.612;-2.416;2022-10-04T06:45:26;13.70;99.90
15178;DHT22;7689;53.612;-2.416;2022-10-04T06:56:41;13.70;99.90
15178;DHT22;7689;53.612;-2.416;2022-10-04T07:01:58;13.70;99.90
15178;DHT22;7689;53.612;-2.416;2022-10-04T07:04:36;13.70;99.90
15178;DHT22;7689;53.612;-2.416;2022-10-04T07:07:22;13.70;99.90
15178;DHT22;7689;53.612;-2.416;2022-10-04T07:13:10;13.80;99.90
15178;DHT22;7689;53.612;-2.416;2022-10-04T07:18:14;13.90;99.90
15178;DHT22;7689;53.612;-2.416;2022-10-04T07:20:41;13.90;99.90
15178;DHT22;7689;53.612;-2.416;2022-10-04T07:23:32;13.90;99.90
15178;DHT22;7689;53.612;-2.416;2022-10-04T07:26:13;14.00;99.90
15178;DHT22;7689;53.612;-2.416;2022-10-04T07:28:42;14.00;99.90
15178;DHT22;7689;53.612;-2.416;2022-10-04T07:31:33;14.00;99.90
15178;DHT22;7689;53.612;-2.416;2022-10-04T07:34:21;14.10;99.90
15178;DHT22;7689;53.612;-2.416;2022-10-04T07:36:54;14.10;99.90
15178;DHT22;7689;53.612;-2.416;2022-10-04T07:39:25;14.10;99.90
15178;DHT22;7689;53.612;-2.416;2022-10-04T07:45:16;14.20;99.90
15178;DHT22;7689;53.612;-2.416;2022-10-04T07:47:43;14.20;99.90
15178;DHT22;7689;53.612;-2.416;2022-10-04T07:50:25;14.20;99.90
15178;DHT22;7689;53.612;-2.416;2022-10-04T08:01:18;14.40;99.90
15178;DHT22;7689;53.612;-2.416;2022-10-04T08:06:59;14.40;99.90
15178;DHT22;7689;53.612;-2.416;2022-10-04T08:12:52;14.50;99.90
15178;DHT22;7689;53.612;-2.416;2022-10-04T08:18:04;14.50;99.90
15178;DHT22;7689;53.612;-2.416;2022-10-04T08:42:14;14.50;99.90
15178;DHT22;7689;53.612;-2.416;2022-10-04T08:53:38;14.70;99.90
15178;DHT22;7689;53.612;-2.416;2022-10-04T09:12:41;14.90;99.90
15178;DHT22;7689;53.612;-2.416;2022-10-04T09:21:01;14.90;99.90
15178;DHT22;7689;53.612;-2.416;2022-10-04T09:34:56;14.90;99.90
15178;DHT22;7689;53.612;-2.416;2022-10-04T09:57:06;15.10;99.90
15178;DHT22;7689;53.612;-2.416;2022-10-04T09:59:51;15.10;99.90
15178;DHT22;7689;53.612;-2.416;2022-10-04T10:25:28;15.40;99.90
15178;DHT22;7689;53.612;-2.416;2022-10-04T10:38:48;15.80;99.90
15178;DHT22;7689;53.612;-2.416;2022-10-04T10:47:21;15.80;99.90
15178;DHT22;7689;53.612;-2.416;2022-10-04T11:15:33;15.30;99.90
15178;DHT22;7689;53.612;-2.416;2022-10-04T11:18:42;15.30;99.90
15178;DHT22;7689;53.612;-2.416;2022-10-04T11:43:20;15.40;99.90
15178;DHT22;7689;53.612;-2.416;2022-10-04T11:54:14;15.40;99.90
15178;DHT22;7689;53.612;-2.416;2022-10-04T12:02:05;15.40;99.90
15178;DHT22;7689;53.612;-2.416;2022-10-04T12:07:38;15.50;99.90
15178;DHT22;7689;53.612;-2.416;2022-10-04T12:21:14;15.80;99.90
15178;DHT22;7689;53.612;-2.416;2022-10-04T12:35:42;15.90;99.90
15178;DHT22;7689;53.612;-2.416;2022-10-04T12:41:10;15.80;99.90
15178;DHT22;7689;53.612;-2.416;2022-10-04T12:47:21;15.80;99.90
15178;DHT22;7689;53.612;-2.416;2022-10-04T12:49:48;15.80;99.90
15178;DHT22;7689;53.612;-2.416;2022-10-04T12:52:25;15.80;99.90
15178;DHT22;7689;53.612;-2.416;2022-10-04T12:57:39;15.90;99.90
15178;DHT22;7689;53.612;-2.416;2022-10-04T13:03:21;16.00;99.90
15178;DHT22;7689;53.612;-2.416;2022-10-04T13:05:51;16.00;99.90
15178;DHT22;7689;53.612;-2.416;2022-10-04T13:22:10;15.90;99.90
15178;DHT22;7689;53.612;-2.416;2022-10-04T13:31:06;15.90;99.90
15178;DHT22;7689;53.612;-2.416;2022-10-04T13:36:15;15.90;99.90
15178;DHT22;7689;53.612;-2.416;2022-10-04T13:50:34;15.90;99.90
15178;DHT22;7689;53.612;-2.416;2022-10-04T13:53:55;15.90;99.90
15178;DHT22;7689;53.612;-2.416;2022-10-04T14:07:49;15.80;99.90
15178;DHT22;7689;53.612;-2.416;2022-10-04T14:10:28;15.80;99.90
15178;DHT22;7689;53.612;-2.416;2022-10-04T14:30:11;15.70;99.90
15178;DHT22;7689;53.612;-2.416;2022-10-04T14:35:55;15.70;99.90
15178;DHT22;7689;53.612;-2.416;2022-10-04T14:38:47;15.70;99.90
15178;DHT22;7689;53.612;-2.416;2022-10-04T14:50:07;15.70;99.90
15178;DHT22;7689;53.612;-2.416;2022-10-04T15:06:57;15.60;99.90
15178;DHT22;7689;53.612;-2.416;2022-10-04T15:09:51;15.60;99.90
15178;DHT22;7689;53.612;-2.416;2022-10-04T15:22:55;15.60;99.90
15178;DHT22;7689;53.612;-2.416;2022-10-04T15:36:46;15.50;99.90
15178;DHT22;7689;53.612;-2.416;2022-10-04T15:41:49;15.50;99.90
15178;DHT22;7689;53.612;-2.416;2022-10-04T15:44:51;15.50;99.90
15178;DHT22;7689;53.612;-2.416;2022-10-04T16:06:59;15.50;99.90
15178;DHT22;7689;53.612;-2.416;2022-10-04T16:15:20;15.50;99.90
15178;DHT22;7689;53.612;-2.416;2022-10-04T16:21:16;15.50;99.90
15178;DHT22;7689;53.612;-2.416;2022-10-04T16:29:33;15.50;99.90
15178;DHT22;7689;53.612;-2.416;2022-10-04T16:32:26;15.50;99.90
15178;DHT22;7689;53.612;-2.416;2022-10-04T16:35:14;15.50;99.90
15178;DHT22;7689;53.612;-2.416;2022-10-04T16:37:58;15.50;99.90
15178;DHT22;7689;53.612;-2.416;2022-10-04T17:06:47;15.50;99.90
15178;DHT22;7689;53.612;-2.416;2022-10-04T17:09:28;15.50;99.90
15178;DHT22;7689;53.612;-2.416;2022-10-04T17:24:27;15.50;99.90
15178;DHT22;7689;53.612;-2.416;2022-10-04T17:29:42;15.50;99.90
15178;DHT22;7689;53.612;-2.416;2022-10-04T17:48:12;15.50;99.90
15178;DHT22;7689;53.612;-2.416;2022-10-04T17:51:11;15.50;99.90
15178;DHT22;7689;53.612;-2.416;2022-10-04T17:54:11;15.50;99.90
15178;DHT22;7689;53.612;-2.416;2022-10-04T17:59:46;15.50;99.90
15178;DHT22;7689;53.612;-2.416;2022-10-04T18:02:26;15.50;99.90
15178;DHT22;7689;53.612;-2.416;2022-10-04T18:04:56;15.50;99.90
15178;DHT22;7689;53.612;-2.416;2022-10-04T18:07:27;15.50;99.90
15178;DHT22;7689;53.612;-2.416;2022-10-04T18:10:14;15.50;99.90
15178;DHT22;7689;53.612;-2.416;2022-10-04T18:15:54;15.50;99.90
15178;DHT22;7689;53.612;-2.416;2022-10-04T18:18:26;15.50;99.90
15178;DHT22;7689;53.612;-2.416;2022-10-04T18:21:02;15.50;99.90
15178;DHT22;7689;53.612;-2.416;2022-10-04T18:23:34;15.50;99.90
15178;DHT22;7689;53.612;-2.416;2022-10-04T18:26:17;15.50;99.90
15178;DHT22;7689;53.612;-2.416;2022-10-04T18:28:46;15.50;99.90
15178;DHT22;7689;53.612;-2.416;2022-10-04T18:31:22;15.50;99.90
15178;DHT22;7689;53.612;-2.416;2022-10-04T18:33:50;15.50;99.90
15178;DHT22;7689;53.612;-2.416;2022-10-04T18:36:19;15.50;99.90
15178;DHT22;7689;53.612;-2.416;2022-10-04T18:42:15;15.50;99.90
15178;DHT22;7689;53.612;-2.416;2022-10-04T18:44:48;15.50;99.90
15178;DHT22;7689;53.612;-2.416;2022-10-04T18:47:38;15.50;99.90
15178;DHT22;7689;53.612;-2.416;2022-10-04T18:50:17;15.50;99.90
15178;DHT22;7689;53.612;-2.416;2022-10-04T18:55:32;15.50;99.90
15178;DHT22;7689;53.612;-2.416;2022-10-04T19:00:59;15.50;99.90
15178;DHT22;7689;53.612;-2.416;2022-10-04T19:04:12;14.10;99.90
15178;DHT22;7689;53.612;-2.416;2022-10-04T19:06:41;15.50;99.90
15178;DHT22;7689;53.612;-2.416;2022-10-04T19:11:56;15.50;99.90
15178;DHT22;7689;53.612;-2.416;2022-10-04T19:14:40;15.50;99.90
15178;DHT22;7689;53.612;-2.416;2022-10-04T19:17:26;15.50;99.90
15178;DHT22;7689;53.612;-2.416;2022-10-04T19:25:26;15.50;99.90
15178;DHT22;7689;53.612;-2.416;2022-10-04T19:30:38;15.50;99.90
15178;DHT22;7689;53.612;-2.416;2022-10-04T19:33:18;15.50;99.90
15178;DHT22;7689;53.612;-2.416;2022-10-04T19:35:52;15.50;99.90
15178;DHT22;7689;53.612;-2.416;2022-10-04T19:43:39;15.50;99.90
15178;DHT22;7689;53.612;-2.416;2022-10-04T19:48:49;15.50;99.90
15178;DHT22;7689;53.612;-2.416;2022-10-04T19:51:28;15.40;99.90
15178;DHT22;7689;53.612;-2.416;2022-10-04T19:54:10;15.50;99.90
15178;DHT22;7689;53.612;-2.416;2022-10-04T19:56:45;15.40;99.90
15178;DHT22;7689;53.612;-2.416;2022-10-04T19:59:17;15.50;99.90
15178;DHT22;7689;53.612;-2.416;2022-10-04T20:01:44;15.50;99.90
15178;DHT22;7689;53.612;-2.416;2022-10-04T20:04:13;15.50;99.90
15178;DHT22;7689;53.612;-2.416;2022-10-04T20:06:59;15.50;99.90
15178;DHT22;7689;53.612;-2.416;2022-10-04T20:11:57;15.40;99.90
15178;DHT22;7689;53.612;-2.416;2022-10-04T20:21:51;15.50;99.90
15178;DHT22;7689;53.612;-2.416;2022-10-04T20:32:05;15.50;99.90
15178;DHT22;7689;53.612;-2.416;2022-10-04T20:34:47;15.50;99.90
15178;DHT22;7689;53.612;-2.416;2022-10-04T20:37:13;15.50;99.90
15178;DHT22;7689;53.612;-2.416;2022-10-04T20:42:36;15.50;99.90
15178;DHT22;7689;53.612;-2.416;2022-10-04T20:47:44;15.50;99.90
15178;DHT22;7689;53.612;-2.416;2022-10-04T20:50:29;15.50;99.90
15178;DHT22;7689;53.612;-2.416;2022-10-04T20:53:01;15.50;99.90
15178;DHT22;7689;53.612;-2.416;2022-10-04T20:55:30;15.50;99.90
15178;DHT22;7689;53.612;-2.416;2022-10-04T20:58:02;15.40;99.90
15178;DHT22;7689;53.612;-2.416;2022-10-04T21:00:32;15.50;99.90
15178;DHT22;7689;53.612;-2.416;2022-10-04T21:03:16;15.50;99.90
15178;DHT22;7689;53.612;-2.416;2022-10-04T21:05:44;15.40;99.90
15178;DHT22;7689;53.612;-2.416;2022-10-04T21:08:24;15.40;99.90
15178;DHT22;7689;53.612;-2.416;2022-10-04T21:11:10;15.40;99.90
15178;DHT22;7689;53.612;-2.416;2022-10-04T21:13:52;15.50;99.90
15178;DHT22;7689;53.612;-2.416;2022-10-04T21:16:46;15.40;99.90
15178;DHT22;7689;53.612;-2.416;2022-10-04T21:21:58;15.40;99.90
15178;DHT22;7689;53.612;-2.416;2022-10-04T21:24:37;15.40;99.90
15178;DHT22;7689;53.612;-2.416;2022-10-04T21:27:05;15.40;99.90
15178;DHT22;7689;53.612;-2.416;2022-10-04T21:29:33;15.30;99.90
15178;DHT22;7689;53.612;-2.416;2022-10-04T21:31:58;15.40;99.90
15178;DHT22;7689;53.612;-2.416;2022-10-04T21:34:24;15.40;99.90
15178;DHT22;7689;53.612;-2.416;2022-10-04T21:36:50;15.30;99.90
15178;DHT22;7689;53.612;-2.416;2022-10-04T21:39:16;15.30;99.90
15178;DHT22;7689;53.612;-2.416;2022-10-04T21:41:42;15.30;99.90
15178;DHT22;7689;53.612;-2.416;2022-10-04T21:44:08;15.30;99.90
15178;DHT22;7689;53.612;-2.416;2022-10-04T21:46:34;15.30;99.90
15178;DHT22;7689;53.612;-2.416;2022-10-04T21:49:01;15.30;99.90
15178;DHT22;7689;53.612;-2.416;2022-10-04T21:51:27;15.30;99.90
15178;DHT22;7689;53.612;-2.416;2022-10-04T21:53:52;15.30;99.90
15178;DHT22;7689;53.612;-2.416;2022-10-04T21:56:18;15.30;99.90
15178;DHT22;7689;53.612;-2.416;2022-10-04T21:58:44;15.30;99.90
15178;DHT22;7689;53.612;-2.416;2022-10-04T22:01:09;15.30;99.90
15178;DHT22;7689;53.612;-2.416;2022-10-04T22:03:35;15.20;99.90
15178;DHT22;7689;53.612;-2.416;2022-10-04T22:06:00;15.30;99.90
15178;DHT22;7689;53.612;-2.416;2022-10-04T22:08:26;15.20;99.90
15178;DHT22;7689;53.612;-2.416;2022-10-04T22:10:52;15.20;99.90
15178;DHT22;7689;53.612;-2.416;2022-10-04T22:13:17;15.20;99.90
15178;DHT22;7689;53.612;-2.416;2022-10-04T22:15:43;15.20;99.90
15178;DHT22;7689;53.612;-2.416;2022-10-04T22:18:09;15.20;99.90
15178;DHT22;7689;53.612;-2.416;2022-10-04T22:20:36;15.20;99.90
15178;DHT22;7689;53.612;-2.416;2022-10-04T22:23:05;15.20;99.90
15178;DHT22;7689;53.612;-2.416;2022-10-04T22:25:34;15.20;99.90
15178;DHT22;7689;53.612;-2.416;2022-10-04T22:28:00;15.20;99.90
15178;DHT22;7689;53.612;-2.416;2022-10-04T22:30:28;15.20;99.90
15178;DHT22;7689;53.612;-2.416;2022-10-04T22:32:58;15.20;99.90
15178;DHT22;7689;53.612;-2.416;2022-10-04T22:35:27;15.20;99.90
15178;DHT22;7689;53.612;-2.416;2022-10-04T22:37:54;15.20;99.90
15178;DHT22;7689;53.612;-2.416;2022-10-04T22:40:22;15.20;99.90
15178;DHT22;7689;53.612;-2.416;2022-10-04T22:42:52;15.20;99.90
15178;DHT22;7689;53.612;-2.416;2022-10-04T22:45:21;15.20;99.90
15178;DHT22;7689;53.612;-2.416;2022-10-04T22:47:48;15.20;99.90
15178;DHT22;7689;53.612;-2.416;2022-10-04T22:50:26;15.20;99.90
15178;DHT22;7689;53.612;-2.416;2022-10-04T22:52:52;15.20;99.90
15178;DHT22;7689;53.612;-2.416;2022-10-04T22:55:18;15.90;99.90
15178;DHT22;7689;53.612;-2.416;2022-10-04T22:57:44;15.20;99.90
15178;DHT22;7689;53.612;-2.416;2022-10-04T23:00:11;15.20;99.90
15178;DHT22;7689;53.612;-2.416;2022-10-04T23:02:36;15.20;99.90
15178;DHT22;7689;53.612;-2.416;2022-10-04T23:05:15;15.20;99.90
15178;DHT22;7689;53.612;-2.416;2022-10-04T23:07:42;15.20;99.90
15178;DHT22;7689;53.612;-2.416;2022-10-04T23:10:09;15.20;99.90
15178;DHT22;7689;53.612;-2.416;2022-10-04T23:12:35;15.20;99.90
15178;DHT22;7689;53.612;-2.416;2022-10-04T23:15:01;15.20;99.90
15178;DHT22;7689;53.612;-2.416;2022-10-04T23:17:37;15.20;99.90
15178;DHT22;7689;53.612;-2.416;2022-10-04T23:20:15;15.20;99.90
15178;DHT22;7689;53.612;-2.416;2022-10-04T23:22:47;14.90;99.90
15178;DHT22;7689;53.612;-2.416;2022-10-04T23:27:45;15.20;99.90
15178;DHT22;7689;53.612;-2.416;2022-10-04T23:30:22;15.20;99.90
15178;DHT22;7689;53.612;-2.416;2022-10-04T23:32:50;15.20;99.90
15178;DHT22;7689;53.612;-2.416;2022-10-04T23:35:19;15.20;99.90
15178;DHT22;7689;53.612;-2.416;2022-10-04T23:37:47;15.20;99.90
15178;DHT22;7689;53.612;-2.416;2022-10-04T23:40:16;15.20;99.90
15178;DHT22;7689;53.612;-2.416;2022-10-04T23:42:43;15.20;99.90
15178;DHT22;7689;53.612;-2.416;2022-10-04T23:45:19;15.20;99.90
15178;DHT22;7689;53.612;-2.416;2022-10-04T23:47:48;15.20;99.90
15178;DHT22;7689;53.612;-2.416;2022-10-04T23:52:42;15.20;99.90
15178;DHT22;7689;53.612;-2.416;2022-10-04T23:55:22;15.20;99.90
15178;DHT22;7689;53.612;-2.416;2022-10-04T23:57:49;15.20;99.90
